Time;durP1;ratioP1;P1;durP2;ratioP2;P2;SDS_P1;SDS_P2;PMS_P1;PMS_P2;Temp;Humidity;BMP_temperature;BMP_pressure;BME280_temperature;BME280_humidity;BME280_pressure;Samples;Min_cycle;Max_cycle;Signal;HPM_P1;HPM_P2
2022/09/08 00:01:18;;;;;;;59.60;3.50;;;;;;;;;;5071229;28;20447;-64
2022/09/08 00:03:45;;;;;;;59.53;3.63;;;;;;;;;;5071124;28;20473;-64
2022/09/08 00:06:16;;;;;;;60.57;3.67;;;;;;;;;;5062830;28;20485;-64
2022/09/08 00:08:43;;;;;;;59.47;3.60;;;;;;;;;;5070724;28;20522;-64
2022/09/08 00:11:11;;;;;;;59.17;3.63;;;;;;;;;;5071233;28;20458;-64
2022/09/08 00:13:41;;;;;;;61.00;3.73;;;;;;;;;;5067079;28;20467;-64
2022/09/08 00:16:10;;;;;;;59.50;3.80;;;;;;;;;;5068895;28;20464;-64
2022/09/08 00:18:38;;;;;;;59.07;3.33;;;;;;;;;;5065803;28;20907;-64
2022/09/08 00:21:05;;;;;;;59.20;3.50;;;;;;;;;;5074567;28;20458;-64
2022/09/08 00:23:32;;;;;;;59.10;3.53;;;;;;;;;;5054169;28;20459;-64
2022/09/08 00:26:00;;;;;;;58.67;3.60;;;;;;;;;;5054439;28;20502;-64
2022/09/08 00:28:27;;;;;;;59.63;3.67;;;;;;;;;;5065457;28;20463;-64
2022/09/08 00:30:55;;;;;;;58.90;3.80;;;;;;;;;;5073922;28;20936;-64
2022/09/08 00:33:22;;;;;;;62.47;5.33;;;;;;;;;;5074166;28;20464;-64
2022/09/08 00:35:50;;;;;;;58.77;3.10;;;;;;;;;;5074155;28;20456;-64
2022/09/08 00:38:19;;;;;;;58.77;3.30;;;;;;;;;;5065799;28;20498;-64
2022/09/08 00:40:47;;;;;;;65.33;3.50;;;;;;;;;;5073778;28;20455;-64
2022/09/08 00:43:28;;;;;;;58.80;3.40;;;;;;;;;;5074062;28;20507;-64
2022/09/08 00:45:58;;;;;;;61.63;3.70;;;;;;;;;;5073750;28;20475;-64
2022/09/08 00:48:26;;;;;;;59.10;3.50;;;;;;;;;;5069977;28;20475;-64
2022/09/08 00:50:54;;;;;;;60.90;3.80;;;;;;;;;;5073599;28;20446;-64
2022/09/08 00:53:21;;;;;;;59.63;3.60;;;;;;;;;;5073606;28;21105;-64
2022/09/08 00:55:49;;;;;;;58.60;3.80;;;;;;;;;;5073764;28;20447;-64
2022/09/08 00:58:16;;;;;;;59.33;3.90;;;;;;;;;;5073842;28;20458;-64
2022/09/08 01:00:43;;;;;;;59.70;3.70;;;;;;;;;;5068925;28;20789;-64
2022/09/08 01:03:15;;;;;;;59.03;3.57;;;;;;;;;;5073566;28;20470;-64
2022/09/08 01:05:48;;;;;;;59.20;3.70;;;;;;;;;;5073409;28;21020;-64
2022/09/08 01:13:57;;;;;;;61.13;4.63;;;;;;;;;;5067055;28;20435;-65
2022/09/08 01:16:24;;;;;;;60.70;3.50;;;;;;;;;;5073376;28;20801;-65
2022/09/08 01:18:56;;;;;;;59.40;3.80;;;;;;;;;;5073265;28;20458;-64
2022/09/08 01:21:27;;;;;;;60.07;4.00;;;;;;;;;;5067227;28;20889;-65
2022/09/08 01:24:07;;;;;;;62.50;3.70;;;;;;;;;;5073261;28;20474;-64
2022/09/08 01:26:46;;;;;;;60.90;4.03;;;;;;;;;;5073298;28;20479;-65
2022/09/08 01:29:16;;;;;;;59.60;3.87;;;;;;;;;;5072235;28;20457;-64
2022/09/08 01:31:44;;;;;;;58.90;3.43;;;;;;;;;;5069344;28;20956;-64
2022/09/08 01:34:12;;;;;;;62.30;4.17;;;;;;;;;;5072863;28;20810;-65
2022/09/08 01:36:39;;;;;;;59.70;3.57;;;;;;;;;;5072798;28;20981;-65
2022/09/08 01:39:06;;;;;;;59.97;3.93;;;;;;;;;;5072650;28;20451;-64
2022/09/08 01:41:33;;;;;;;61.90;3.80;;;;;;;;;;5070460;28;20471;-65
2022/09/08 01:44:00;;;;;;;59.27;4.00;;;;;;;;;;5057165;28;20479;-64
2022/09/08 01:46:30;;;;;;;59.77;4.60;;;;;;;;;;5072656;28;21026;-65
2022/09/08 01:48:57;;;;;;;61.37;4.37;;;;;;;;;;5072185;28;20460;-65
2022/09/08 01:51:25;;;;;;;59.27;4.07;;;;;;;;;;5072619;28;20455;-65
2022/09/08 01:53:52;;;;;;;59.30;3.53;;;;;;;;;;5069831;28;20990;-65
2022/09/08 01:56:19;;;;;;;59.10;3.63;;;;;;;;;;5072781;28;20507;-64
2022/09/08 01:58:47;;;;;;;59.30;3.93;;;;;;;;;;5069429;28;20474;-65
2022/09/08 02:01:14;;;;;;;59.30;4.10;;;;;;;;;;5071887;28;20448;-64
2022/09/08 02:03:42;;;;;;;59.50;3.63;;;;;;;;;;5072095;28;20478;-64
2022/09/08 02:06:10;;;;;;;61.50;4.03;;;;;;;;;;5072537;28;20483;-64
2022/09/08 02:08:37;;;;;;;59.23;3.93;;;;;;;;;;5067978;28;20842;-65
2022/09/08 02:11:05;;;;;;;59.70;4.10;;;;;;;;;;5066136;28;20463;-64
2022/09/08 02:13:33;;;;;;;59.17;3.80;;;;;;;;;;5072142;28;20467;-64
2022/09/08 02:16:01;;;;;;;60.13;4.40;;;;;;;;;;5071994;28;20894;-65
2022/09/08 02:18:29;;;;;;;59.80;3.83;;;;;;;;;;5070149;28;20447;-64
2022/09/08 02:21:08;;;;;;;59.27;4.03;;;;;;;;;;5067543;28;20538;-64
2022/09/08 02:23:36;;;;;;;61.07;4.00;;;;;;;;;;5072246;28;20467;-64
2022/09/08 02:26:03;;;;;;;60.40;5.00;;;;;;;;;;5071942;28;20483;-64
2022/09/08 02:28:30;;;;;;;58.87;3.80;;;;;;;;;;5068386;28;20463;-65
2022/09/08 02:30:58;;;;;;;59.73;4.47;;;;;;;;;;5069556;28;20467;-65
2022/09/08 02:33:26;;;;;;;60.97;4.13;;;;;;;;;;5071792;28;20471;-65
2022/09/08 02:35:53;;;;;;;58.87;3.60;;;;;;;;;;5071820;28;20923;-65
2022/09/08 02:38:22;;;;;;;59.00;3.23;;;;;;;;;;5071938;28;20447;-65
2022/09/08 02:40:49;;;;;;;59.70;4.03;;;;;;;;;;5067320;28;20825;-65
2022/09/08 02:43:17;;;;;;;59.83;4.03;;;;;;;;;;5071802;28;20475;-64
2022/09/08 02:45:46;;;;;;;59.50;3.63;;;;;;;;;;5071954;28;20535;-65
2022/09/08 02:48:13;;;;;;;59.70;3.93;;;;;;;;;;5071618;28;20483;-64
2022/09/08 02:50:40;;;;;;;60.97;3.60;;;;;;;;;;5069266;28;20468;-65
2022/09/08 02:53:07;;;;;;;59.90;3.40;;;;;;;;;;5067572;28;20569;-65
2022/09/08 02:55:38;;;;;;;60.47;4.27;;;;;;;;;;5071479;28;20444;-65
2022/09/08 02:58:06;;;;;;;60.63;4.43;;;;;;;;;;5071880;28;20440;-65
2022/09/08 03:00:34;;;;;;;59.53;3.90;;;;;;;;;;5071681;28;20444;-65
2022/09/08 03:03:01;;;;;;;62.40;3.77;;;;;;;;;;5065949;28;20494;-65
2022/09/08 03:05:28;;;;;;;59.77;4.47;;;;;;;;;;5071257;28;20443;-65
2022/09/08 03:07:55;;;;;;;61.37;4.73;;;;;;;;;;5071343;28;20848;-65
2022/09/08 03:10:23;;;;;;;58.90;3.53;;;;;;;;;;5071302;28;20448;-65
2022/09/08 03:12:51;;;;;;;59.20;3.50;;;;;;;;;;5067423;28;20481;-65
2022/09/08 03:15:19;;;;;;;58.90;3.57;;;;;;;;;;5071158;28;20447;-65
2022/09/08 03:17:46;;;;;;;59.10;3.80;;;;;;;;;;5071460;28;20448;-65
2022/09/08 03:20:14;;;;;;;58.97;3.70;;;;;;;;;;5071113;28;20447;-65
2022/09/08 03:22:41;;;;;;;60.30;3.60;;;;;;;;;;5068823;28;20494;-65
2022/09/08 03:25:08;;;;;;;59.23;4.10;;;;;;;;;;5067336;28;21053;-65
2022/09/08 03:27:36;;;;;;;59.10;3.80;;;;;;;;;;5071507;28;20509;-65
2022/09/08 03:30:05;;;;;;;59.00;3.70;;;;;;;;;;5070919;28;20994;-65
2022/09/08 03:32:33;;;;;;;58.93;3.80;;;;;;;;;;5071170;28;20459;-65
2022/09/08 03:35:01;;;;;;;59.27;3.60;;;;;;;;;;5068691;28;20471;-65
2022/09/08 03:37:28;;;;;;;60.90;3.80;;;;;;;;;;5067368;28;20855;-65
2022/09/08 03:39:55;;;;;;;59.33;3.80;;;;;;;;;;5071158;28;20447;-65
2022/09/08 03:42:22;;;;;;;60.07;3.40;;;;;;;;;;5071220;28;20453;-65
2022/09/08 03:44:49;;;;;;;59.10;3.40;;;;;;;;;;5067215;28;20467;-65
2022/09/08 03:47:18;;;;;;;59.30;3.37;;;;;;;;;;5071019;28;20485;-65
2022/09/08 03:49:46;;;;;;;59.63;3.90;;;;;;;;;;5070514;28;20448;-65
2022/09/08 03:52:13;;;;;;;58.50;2.90;;;;;;;;;;5073903;28;20479;-65
2022/09/08 03:54:50;;;;;;;59.90;2.97;;;;;;;;;;5072725;28;20522;-65
2022/09/08 03:57:19;;;;;;;58.77;3.63;;;;;;;;;;5071983;28;20974;-65
2022/09/08 03:59:46;;;;;;;58.57;2.90;;;;;;;;;;5074593;28;20446;-65
2022/09/08 04:02:14;;;;;;;58.77;3.03;;;;;;;;;;5074658;28;20946;-65
2022/09/08 04:04:43;;;;;;;58.43;3.10;;;;;;;;;;5074867;28;20498;-65
2022/09/08 04:07:10;;;;;;;59.00;3.10;;;;;;;;;;5072491;28;20487;-65
2022/09/08 04:09:37;;;;;;;59.30;3.50;;;;;;;;;;5074731;28;20451;-65
2022/09/08 04:12:05;;;;;;;58.70;3.10;;;;;;;;;;5071507;28;20451;-65
2022/09/08 04:14:33;;;;;;;59.30;3.00;;;;;;;;;;5074505;28;20470;-65
2022/09/08 04:17:00;;;;;;;58.57;3.07;;;;;;;;;;5070420;28;20459;-65
2022/09/08 04:19:27;;;;;;;58.40;3.10;;;;;;;;;;5074250;28;20512;-65
2022/09/08 04:21:56;;;;;;;59.27;3.97;;;;;;;;;;5074428;28;20447;-65
2022/09/08 04:24:23;;;;;;;60.80;3.17;;;;;;;;;;5074645;28;20470;-65
2022/09/08 04:26:50;;;;;;;58.50;3.00;;;;;;;;;;5071276;28;20487;-65
2022/09/08 04:29:17;;;;;;;59.50;3.57;;;;;;;;;;5070937;28;20447;-65
2022/09/08 04:31:46;;;;;;;58.57;2.80;;;;;;;;;;5074321;28;20939;-65
2022/09/08 04:34:14;;;;;;;59.10;3.00;;;;;;;;;;5074345;28;20522;-65
2022/09/08 04:36:41;;;;;;;60.30;3.10;;;;;;;;;;5074052;28;20471;-65
2022/09/08 04:39:09;;;;;;;58.33;2.90;;;;;;;;;;5065287;28;20482;-65
2022/09/08 04:41:36;;;;;;;59.97;3.40;;;;;;;;;;5073793;28;20454;-65
2022/09/08 04:44:04;;;;;;;59.00;2.87;;;;;;;;;;5074410;28;20467;-65
2022/09/08 04:46:32;;;;;;;58.93;3.20;;;;;;;;;;5070771;28;20477;-66
2022/09/08 04:48:59;;;;;;;58.67;3.00;;;;;;;;;;5070561;28;20482;-66
2022/09/08 04:51:27;;;;;;;59.77;2.90;;;;;;;;;;5073678;28;20443;-65
2022/09/08 04:53:55;;;;;;;58.97;3.20;;;;;;;;;;5073828;28;20477;-65
2022/09/08 04:56:24;;;;;;;59.97;2.93;;;;;;;;;;5073712;28;20506;-66
2022/09/08 04:58:53;;;;;;;58.67;3.00;;;;;;;;;;5071021;28;20476;-65
2022/09/08 05:01:21;;;;;;;59.00;3.27;;;;;;;;;;5070345;28;21008;-65
2022/09/08 05:03:48;;;;;;;58.47;2.70;;;;;;;;;;5072750;28;20867;-66
2022/09/08 05:06:16;;;;;;;58.47;2.80;;;;;;;;;;5073692;28;20482;-65
2022/09/08 05:08:44;;;;;;;58.57;2.90;;;;;;;;;;5073026;28;20486;-66
2022/09/08 05:11:11;;;;;;;58.67;2.90;;;;;;;;;;5058289;28;20472;-65
2022/09/08 05:13:40;;;;;;;60.50;3.10;;;;;;;;;;5064627;28;20483;-65
2022/09/08 05:16:08;;;;;;;58.37;3.07;;;;;;;;;;5068946;28;20985;-66
2022/09/08 05:18:35;;;;;;;60.07;3.27;;;;;;;;;;5066540;28;20452;-65
2022/09/08 05:21:02;;;;;;;58.47;2.80;;;;;;;;;;5068427;28;20464;-65
2022/09/08 05:23:30;;;;;;;59.67;3.43;;;;;;;;;;5064446;28;20470;-65
2022/09/08 05:25:57;;;;;;;58.43;2.73;;;;;;;;;;5073238;28;20446;-66
2022/09/08 05:28:25;;;;;;;58.43;2.73;;;;;;;;;;5066715;28;20493;-66
2022/09/08 05:30:53;;;;;;;58.67;3.03;;;;;;;;;;5070195;28;20572;-65
2022/09/08 05:33:21;;;;;;;58.70;3.00;;;;;;;;;;5064122;28;20479;-65
2022/09/08 05:35:49;;;;;;;59.17;3.17;;;;;;;;;;5072712;28;20520;-65
2022/09/08 05:38:16;;;;;;;58.93;3.13;;;;;;;;;;5073076;28;20447;-65
2022/09/08 05:40:43;;;;;;;58.50;2.60;;;;;;;;;;5072650;28;20551;-65
2022/09/08 05:43:10;;;;;;;58.50;2.80;;;;;;;;;;5069493;28;21002;-65
2022/09/08 05:45:38;;;;;;;60.07;3.63;;;;;;;;;;5064595;28;20477;-65
2022/09/08 05:48:06;;;;;;;61.30;3.10;;;;;;;;;;5072836;28;20482;-65
2022/09/08 05:50:34;;;;;;;58.27;2.80;;;;;;;;;;5071976;28;20544;-65
2022/09/08 05:53:01;;;;;;;58.67;2.90;;;;;;;;;;5062569;28;20505;-65
2022/09/08 05:55:29;;;;;;;58.47;2.90;;;;;;;;;;5072710;28;20442;-65
2022/09/08 05:57:56;;;;;;;58.77;3.07;;;;;;;;;;5073078;28;20443;-66
2022/09/08 06:00:24;;;;;;;59.30;3.10;;;;;;;;;;5072378;28;20829;-65
2022/09/08 06:02:51;;;;;;;58.50;3.03;;;;;;;;;;5069730;28;20499;-65
2022/09/08 06:05:20;;;;;;;59.87;3.23;;;;;;;;;;5069568;28;20808;-65
2022/09/08 06:07:47;;;;;;;59.73;3.10;;;;;;;;;;5072248;28;20490;-65
2022/09/08 06:10:15;;;;;;;59.33;3.13;;;;;;;;;;5072254;28;20504;-65
2022/09/08 06:12:42;;;;;;;58.67;3.00;;;;;;;;;;5071746;28;20467;-65
2022/09/08 06:15:10;;;;;;;59.70;3.30;;;;;;;;;;5064438;28;20474;-65
2022/09/08 06:17:37;;;;;;;59.47;2.90;;;;;;;;;;5071980;28;20451;-65
2022/09/08 06:20:04;;;;;;;59.37;3.23;;;;;;;;;;5071799;28;20928;-64
2022/09/08 06:22:34;;;;;;;58.43;2.90;;;;;;;;;;5071693;28;20538;-65
2022/09/08 06:25:01;;;;;;;58.60;2.90;;;;;;;;;;5067031;28;20471;-66
2022/09/08 06:27:32;;;;;;;59.20;3.30;;;;;;;;;;5070502;28;20482;-65
2022/09/08 06:30:02;;;;;;;58.30;2.70;;;;;;;;;;5071614;28;20447;-65
2022/09/08 06:32:31;;;;;;;58.20;2.60;;;;;;;;;;5071330;28;20473;-65
2022/09/08 06:35:01;;;;;;;58.37;2.80;;;;;;;;;;5069121;28;20553;-65
2022/09/08 06:37:31;;;;;;;58.97;2.87;;;;;;;;;;5070858;28;20447;-65
2022/09/08 06:40:03;;;;;;;59.57;3.60;;;;;;;;;;5071746;28;20526;-65
2022/09/08 06:42:33;;;;;;;58.03;2.70;;;;;;;;;;5071671;28;20451;-65
2022/09/08 06:45:00;;;;;;;58.37;2.70;;;;;;;;;;5068745;28;20475;-65
2022/09/08 06:47:32;;;;;;;60.20;3.10;;;;;;;;;;5071746;28;20485;-65
2022/09/08 06:50:00;;;;;;;58.47;2.60;;;;;;;;;;5071663;28;20448;-65
2022/09/08 06:52:30;;;;;;;58.50;2.80;;;;;;;;;;5071653;28;20457;-65
2022/09/08 06:55:03;;;;;;;58.27;2.70;;;;;;;;;;5066834;28;20482;-65
2022/09/08 06:57:37;;;;;;;58.27;2.80;;;;;;;;;;5071507;28;20856;-65
2022/09/08 07:00:10;;;;;;;58.20;2.67;;;;;;;;;;5068254;28;20450;-65
2022/09/08 07:02:58;;;;;;;58.30;2.73;;;;;;;;;;5071790;28;20543;-65
2022/09/08 07:05:45;;;;;;;58.13;2.70;;;;;;;;;;5059631;28;20490;-66
2022/09/08 07:08:18;;;;;;;58.33;3.07;;;;;;;;;;5064173;28;20844;-65
2022/09/08 07:10:49;;;;;;;58.17;2.60;;;;;;;;;;5071398;28;20443;-65
2022/09/08 07:13:22;;;;;;;58.40;2.67;;;;;;;;;;5071308;28;20471;-66
2022/09/08 07:15:55;;;;;;;58.67;2.97;;;;;;;;;;5069078;28;20682;-66
2022/09/08 07:18:24;;;;;;;58.40;2.80;;;;;;;;;;5070956;28;20448;-65
2022/09/08 07:20:55;;;;;;;58.17;2.70;;;;;;;;;;5070897;28;20947;-66
2022/09/08 07:23:27;;;;;;;58.87;2.80;;;;;;;;;;5071357;28;20471;-65
2022/09/08 07:25:57;;;;;;;58.27;2.77;;;;;;;;;;5069634;28;20451;-65
2022/09/08 07:28:26;;;;;;;57.97;2.50;;;;;;;;;;5073212;28;21001;-65
2022/09/08 07:30:56;;;;;;;58.07;2.70;;;;;;;;;;5071758;28;20474;-65
2022/09/08 07:33:25;;;;;;;58.20;2.70;;;;;;;;;;5071821;28;21047;-65
2022/09/08 07:36:03;;;;;;;58.37;3.00;;;;;;;;;;5075267;28;20982;-65
2022/09/08 07:38:36;;;;;;;58.97;2.70;;;;;;;;;;5075203;28;20477;-66
2022/09/08 07:41:05;;;;;;;58.00;2.70;;;;;;;;;;5060890;28;20479;-65
2022/09/08 07:43:34;;;;;;;57.77;2.40;;;;;;;;;;5074464;28;20550;-65
2022/09/08 07:46:19;;;;;;;58.20;2.50;;;;;;;;;;5075404;28;20454;-65
2022/09/08 07:48:51;;;;;;;57.87;2.50;;;;;;;;;;5074750;28;21029;-65
2022/09/08 07:51:19;;;;;;;57.83;2.43;;;;;;;;;;5072594;28;20467;-65
2022/09/08 07:53:50;;;;;;;58.10;2.70;;;;;;;;;;5074459;28;20519;-65
2022/09/08 07:56:18;;;;;;;58.00;2.70;;;;;;;;;;5075080;28;20444;-65
2022/09/08 07:58:52;;;;;;;58.27;2.60;;;;;;;;;;5074796;28;20454;-65
2022/09/08 08:01:25;;;;;;;58.00;2.80;;;;;;;;;;5071069;28;20463;-65
2022/09/08 08:04:00;;;;;;;58.03;2.50;;;;;;;;;;5074802;28;20471;-65
2022/09/08 08:06:34;;;;;;;57.87;2.30;;;;;;;;;;5071795;28;20927;-66
2022/09/08 08:09:04;;;;;;;58.37;2.77;;;;;;;;;;5074430;28;20489;-65
2022/09/08 08:11:35;;;;;;;57.87;2.40;;;;;;;;;;5072425;28;20536;-65
2022/09/08 08:14:08;;;;;;;58.07;2.50;;;;;;;;;;5070285;28;20983;-65
2022/09/08 08:16:41;;;;;;;57.93;2.40;;;;;;;;;;5071638;28;20500;-65
2022/09/08 08:19:12;;;;;;;58.00;2.40;;;;;;;;;;5070397;28;20463;-65
2022/09/08 08:21:43;;;;;;;58.00;2.20;;;;;;;;;;5054463;28;20448;-65
2022/09/08 08:24:16;;;;;;;57.63;2.23;;;;;;;;;;5054947;28;20472;-65
2022/09/08 08:26:45;;;;;;;57.93;2.37;;;;;;;;;;5053364;28;20448;-65
2022/09/08 08:29:24;;;;;;;58.03;2.50;;;;;;;;;;5071706;28;20513;-65
2022/09/08 08:31:53;;;;;;;57.77;2.20;;;;;;;;;;5074619;28;20451;-65
2022/09/08 08:34:24;;;;;;;58.27;2.60;;;;;;;;;;5074091;28;20471;-64
2022/09/08 08:36:51;;;;;;;58.30;2.33;;;;;;;;;;5074290;28;20982;-65
2022/09/08 08:39:20;;;;;;;57.83;2.40;;;;;;;;;;5067985;28;20463;-65
2022/09/08 08:41:57;;;;;;;58.07;2.33;;;;;;;;;;5074195;28;20455;-65
2022/09/08 08:44:30;;;;;;;58.10;2.20;;;;;;;;;;5074590;28;20471;-65
2022/09/08 08:47:10;;;;;;;59.17;2.53;;;;;;;;;;5074218;28;20447;-64
2022/09/08 08:49:50;;;;;;;57.47;2.10;;;;;;;;;;5064861;28;21025;-65
2022/09/08 08:52:25;;;;;;;57.83;2.40;;;;;;;;;;5074023;28;20501;-65
2022/09/08 08:55:00;;;;;;;57.87;2.10;;;;;;;;;;5074136;28;20822;-65
2022/09/08 08:57:34;;;;;;;58.40;2.70;;;;;;;;;;5074163;28;20448;-64
2022/09/08 09:00:17;;;;;;;59.37;2.83;;;;;;;;;;5070763;28;20474;-65
2022/09/08 09:03:02;;;;;;;57.63;2.30;;;;;;;;;;5065430;28;20483;-65
2022/09/08 09:05:34;;;;;;;58.10;2.30;;;;;;;;;;5073987;28;20807;-65
2022/09/08 09:08:13;;;;;;;57.67;2.23;;;;;;;;;;5073438;28;20447;-65
2022/09/08 09:10:49;;;;;;;58.07;2.40;;;;;;;;;;5067649;28;20474;-65
2022/09/08 09:13:27;;;;;;;57.90;2.20;;;;;;;;;;5073787;28;20497;-65
2022/09/08 09:16:02;;;;;;;57.97;2.30;;;;;;;;;;5073514;28;20960;-65
2022/09/08 09:18:42;;;;;;;57.77;2.27;;;;;;;;;;5073555;28;20447;-65
2022/09/08 09:21:14;;;;;;;58.47;2.63;;;;;;;;;;5066739;28;20468;-65
2022/09/08 09:23:49;;;;;;;58.20;2.40;;;;;;;;;;5065723;28;20521;-65
2022/09/08 09:26:18;;;;;;;58.17;2.40;;;;;;;;;;5073539;28;20450;-65
2022/09/08 09:28:55;;;;;;;57.77;2.50;;;;;;;;;;5072812;28;20483;-65
2022/09/08 09:31:40;;;;;;;58.10;2.60;;;;;;;;;;5070688;28;20465;-64
2022/09/08 09:34:14;;;;;;;57.53;2.10;;;;;;;;;;5072871;28;20834;-65
2022/09/08 09:36:51;;;;;;;57.47;2.10;;;;;;;;;;5072965;28;20466;-65
2022/09/08 09:39:36;;;;;;;58.10;2.57;;;;;;;;;;5072831;28;20439;-65
2022/09/08 09:42:25;;;;;;;58.33;2.27;;;;;;;;;;5069648;28;20464;-65
2022/09/08 09:45:02;;;;;;;58.20;2.27;;;;;;;;;;5066971;28;20493;-65
2022/09/08 09:47:35;;;;;;;57.87;2.30;;;;;;;;;;5072995;28;20453;-65
2022/09/08 09:50:21;;;;;;;57.63;2.30;;;;;;;;;;5071594;28;20489;-65
2022/09/08 09:52:53;;;;;;;57.87;2.20;;;;;;;;;;5069275;28;20479;-65
2022/09/08 09:55:28;;;;;;;58.40;2.23;;;;;;;;;;5070271;28;20451;-65
2022/09/08 09:58:13;;;;;;;57.57;2.10;;;;;;;;;;5072821;28;20465;-64
2022/09/08 10:00:52;;;;;;;57.43;2.00;;;;;;;;;;5062380;28;20459;-65
2022/09/08 10:03:38;;;;;;;58.30;2.23;;;;;;;;;;5070209;28;21011;-65
2022/09/08 10:06:15;;;;;;;57.57;2.23;;;;;;;;;;5068150;28;20995;-65
2022/09/08 10:08:58;;;;;;;57.90;2.20;;;;;;;;;;5071914;28;20995;-65
2022/09/08 10:11:41;;;;;;;57.80;2.10;;;;;;;;;;5070763;28;20452;-65
2022/09/08 10:14:21;;;;;;;57.90;2.10;;;;;;;;;;5069162;28;20497;-65
2022/09/08 10:17:03;;;;;;;58.00;2.17;;;;;;;;;;5062275;28;20819;-65
2022/09/08 10:19:46;;;;;;;57.57;1.90;;;;;;;;;;5072251;28;20796;-65
2022/09/08 10:22:40;;;;;;;58.00;2.10;;;;;;;;;;5072601;28;20815;-65
2022/09/08 10:25:37;;;;;;;57.33;1.90;;;;;;;;;;5068974;28;20477;-65
2022/09/08 10:28:13;;;;;;;57.07;1.90;;;;;;;;;;5067465;28;20940;-65
2022/09/08 10:30:58;;;;;;;57.57;1.90;;;;;;;;;;5071973;28;20427;-65
2022/09/08 10:33:55;;;;;;;58.10;2.20;;;;;;;;;;5072064;28;20467;-65
2022/09/08 10:36:26;;;;;;;57.57;1.90;;;;;;;;;;5069217;28;20546;-65
2022/09/08 10:39:01;;;;;;;57.60;2.10;;;;;;;;;;5071808;28;20451;-65
2022/09/08 10:41:48;;;;;;;57.57;2.20;;;;;;;;;;5072104;28;20455;-65
2022/09/08 10:44:25;;;;;;;58.37;2.20;;;;;;;;;;5071749;28;20493;-65
2022/09/08 10:47:13;;;;;;;57.20;2.17;;;;;;;;;;5068538;28;20462;-65
2022/09/08 10:49:58;;;;;;;58.10;2.17;;;;;;;;;;5041286;28;20509;-65
2022/09/08 10:52:31;;;;;;;57.77;1.90;;;;;;;;;;5061663;28;20971;-64
2022/09/08 10:55:17;;;;;;;57.20;2.10;;;;;;;;;;5071745;28;20963;-65
2022/09/08 10:57:52;;;;;;;57.70;2.20;;;;;;;;;;5065754;28;20455;-65
2022/09/08 11:00:22;;;;;;;58.60;2.57;;;;;;;;;;5071461;28;20443;-65
2022/09/08 11:02:59;;;;;;;58.40;2.70;;;;;;;;;;5071552;28;20470;-65
2022/09/08 11:05:41;;;;;;;58.67;2.23;;;;;;;;;;5066711;28;20471;-65
2022/09/08 11:08:26;;;;;;;58.03;2.23;;;;;;;;;;5067779;28;20853;-65
2022/09/08 11:11:11;;;;;;;57.80;2.60;;;;;;;;;;5064551;28;20801;-65
2022/09/08 11:13:44;;;;;;;57.87;2.30;;;;;;;;;;5066181;28;20487;-64
2022/09/08 11:16:25;;;;;;;58.10;2.30;;;;;;;;;;5071530;28;20435;-65
2022/09/08 11:19:04;;;;;;;58.10;2.40;;;;;;;;;;5068882;28;20460;-65
2022/09/08 11:21:32;;;;;;;58.03;2.63;;;;;;;;;;5066627;28;20496;-65
2022/09/08 11:24:05;;;;;;;57.67;2.47;;;;;;;;;;5066497;28;20466;-65
2022/09/08 11:26:37;;;;;;;58.10;2.53;;;;;;;;;;5071695;28;20872;-64
2022/09/08 11:29:09;;;;;;;57.67;2.10;;;;;;;;;;5071304;28;20604;-65
2022/09/08 11:31:42;;;;;;;58.17;2.57;;;;;;;;;;5068964;28;20467;-65
2022/09/08 11:34:27;;;;;;;57.50;2.43;;;;;;;;;;5071140;28;20927;-65
2022/09/08 11:37:11;;;;;;;58.20;2.20;;;;;;;;;;5071184;28;20451;-65
2022/09/08 11:39:48;;;;;;;58.27;2.17;;;;;;;;;;5061096;28;20473;-65
2022/09/08 11:42:36;;;;;;;58.20;2.00;;;;;;;;;;5067497;28;20467;-65
2022/09/08 11:45:11;;;;;;;58.30;2.43;;;;;;;;;;5065489;28;20970;-65
2022/09/08 11:48:06;;;;;;;57.90;2.13;;;;;;;;;;5051446;28;20860;-65
2022/09/08 11:50:37;;;;;;;57.50;1.80;;;;;;;;;;5050749;28;20848;-66
2022/09/08 11:53:26;;;;;;;57.37;1.70;;;;;;;;;;5049711;28;20484;-65
2022/09/08 11:56:03;;;;;;;57.37;1.70;;;;;;;;;;5065379;28;20471;-65
2022/09/08 11:58:36;;;;;;;57.20;1.80;;;;;;;;;;5070968;28;20795;-66
2022/09/08 12:01:07;;;;;;;57.20;1.80;;;;;;;;;;5071182;28;20452;-65
2022/09/08 12:04:03;;;;;;;58.37;1.93;;;;;;;;;;5067804;28;20862;-65
2022/09/08 12:06:46;;;;;;;57.57;2.17;;;;;;;;;;5070049;28;20439;-65
2022/09/08 12:09:31;;;;;;;57.47;1.77;;;;;;;;;;5070872;28;20482;-65
2022/09/08 12:12:08;;;;;;;58.27;2.40;;;;;;;;;;5071427;28;20445;-65
2022/09/08 12:14:41;;;;;;;57.90;2.10;;;;;;;;;;5072079;28;20482;-65
2022/09/08 12:17:13;;;;;;;57.87;2.13;;;;;;;;;;5074526;28;20447;-65
2022/09/08 12:19:48;;;;;;;57.90;2.10;;;;;;;;;;5074281;28;21046;-65
2022/09/08 12:22:30;;;;;;;57.50;2.00;;;;;;;;;;5075223;28;20453;-65
2022/09/08 12:25:04;;;;;;;57.60;1.90;;;;;;;;;;5071629;28;20474;-65
2022/09/08 12:27:39;;;;;;;57.57;1.87;;;;;;;;;;5073898;28;20476;-65
2022/09/08 12:30:11;;;;;;;59.03;2.30;;;;;;;;;;5070599;28;20559;-65
2022/09/08 12:32:53;;;;;;;57.57;2.00;;;;;;;;;;5074361;28;20447;-65
2022/09/08 12:35:24;;;;;;;57.47;2.00;;;;;;;;;;5073060;28;20466;-65
2022/09/08 12:37:53;;;;;;;58.50;2.23;;;;;;;;;;5073344;28;20454;-65
2022/09/08 12:40:27;;;;;;;60.20;2.30;;;;;;;;;;5074006;28;20819;-65
2022/09/08 12:43:13;;;;;;;61.80;2.20;;;;;;;;;;5074069;28;20478;-65
2022/09/08 12:45:45;;;;;;;58.57;2.10;;;;;;;;;;5074237;28;20447;-65
2022/09/08 12:48:17;;;;;;;57.90;2.10;;;;;;;;;;5071845;28;20473;-65
2022/09/08 12:50:50;;;;;;;57.30;1.90;;;;;;;;;;5073786;28;20863;-65
2022/09/08 12:53:37;;;;;;;57.60;2.20;;;;;;;;;;5073977;28;20473;-65
2022/09/08 12:56:05;;;;;;;57.77;2.20;;;;;;;;;;5074211;28;20443;-65
2022/09/08 12:58:38;;;;;;;57.33;2.00;;;;;;;;;;5062920;28;21031;-65
2022/09/08 13:01:11;;;;;;;56.97;1.90;;;;;;;;;;5070992;28;20462;-65
2022/09/08 13:03:40;;;;;;;57.47;2.10;;;;;;;;;;5073256;28;20476;-65
2022/09/08 13:06:31;;;;;;;58.40;2.20;;;;;;;;;;5073901;28;20451;-65
2022/09/08 13:09:01;;;;;;;57.53;1.70;;;;;;;;;;5070984;28;20974;-65
2022/09/08 13:11:36;;;;;;;57.67;1.80;;;;;;;;;;5073508;28;20439;-65
2022/09/08 13:14:06;;;;;;;66.60;2.10;;;;;;;;;;5073587;28;20839;-65
2022/09/08 13:16:38;;;;;;;57.40;2.10;;;;;;;;;;5074100;28;20451;-65
2022/09/08 13:19:12;;;;;;;57.23;2.00;;;;;;;;;;5070717;28;20964;-65
2022/09/08 13:21:55;;;;;;;57.60;2.30;;;;;;;;;;5065708;28;20447;-65
2022/09/08 13:24:29;;;;;;;57.17;1.80;;;;;;;;;;5072755;28;20471;-65
2022/09/08 13:27:04;;;;;;;57.60;2.10;;;;;;;;;;5073150;28;20458;-65
2022/09/08 13:29:49;;;;;;;57.03;1.80;;;;;;;;;;5070890;28;20493;-65
2022/09/08 13:32:23;;;;;;;57.00;1.97;;;;;;;;;;5070029;28;20447;-65
2022/09/08 13:34:58;;;;;;;57.67;2.20;;;;;;;;;;5069226;28;20946;-65
2022/09/08 13:37:35;;;;;;;57.07;2.00;;;;;;;;;;5072751;28;20454;-65
2022/09/08 13:40:12;;;;;;;58.17;2.50;;;;;;;;;;5072705;28;20449;-65
2022/09/08 13:42:53;;;;;;;59.07;2.20;;;;;;;;;;5066528;28;20831;-65
2022/09/08 13:45:31;;;;;;;59.17;2.13;;;;;;;;;;5072729;28;20447;-65
2022/09/08 13:48:22;;;;;;;57.67;2.00;;;;;;;;;;5070983;28;20981;-65
2022/09/08 13:51:02;;;;;;;57.60;2.10;;;;;;;;;;5052644;28;20483;-64
2022/09/08 13:53:39;;;;;;;58.87;2.30;;;;;;;;;;5053073;28;20490;-65
2022/09/08 13:56:17;;;;;;;57.60;2.20;;;;;;;;;;5052831;28;20452;-65
2022/09/08 13:58:45;;;;;;;58.57;2.30;;;;;;;;;;5065431;28;20459;-65
2022/09/08 14:01:28;;;;;;;57.03;1.90;;;;;;;;;;5072738;28;20704;-64
2022/09/08 14:03:57;;;;;;;57.60;2.00;;;;;;;;;;5072535;28;20470;-65
2022/09/08 14:06:30;;;;;;;60.60;2.10;;;;;;;;;;5072769;28;20943;-65
2022/09/08 14:08:59;;;;;;;57.30;1.70;;;;;;;;;;5060754;28;20454;-65
2022/09/08 14:11:30;;;;;;;57.27;1.90;;;;;;;;;;5072469;28;20533;-65
2022/09/08 14:14:17;;;;;;;57.50;2.00;;;;;;;;;;5072482;28;20467;-64
2022/09/08 14:16:45;;;;;;;57.30;1.90;;;;;;;;;;5072264;28;20505;-65
2022/09/08 14:19:23;;;;;;;57.40;1.70;;;;;;;;;;5069625;28;20459;-65
2022/09/08 14:21:54;;;;;;;57.17;1.80;;;;;;;;;;5065962;28;20451;-65
2022/09/08 14:24:36;;;;;;;57.40;1.80;;;;;;;;;;5072397;28;20979;-64
2022/09/08 14:27:13;;;;;;;58.30;1.80;;;;;;;;;;5072504;28;20443;-64
2022/09/08 14:29:47;;;;;;;57.13;2.00;;;;;;;;;;5069282;28;20831;-64
2022/09/08 14:32:22;;;;;;;57.40;2.00;;;;;;;;;;5071942;28;20451;-64
2022/09/08 14:35:07;;;;;;;57.30;1.80;;;;;;;;;;5071860;28;20819;-64
2022/09/08 14:37:43;;;;;;;57.20;1.97;;;;;;;;;;5071612;28;20450;-65
2022/09/08 14:40:19;;;;;;;57.50;2.00;;;;;;;;;;5065673;28;20463;-64
2022/09/08 14:42:56;;;;;;;57.33;1.80;;;;;;;;;;5065148;28;20521;-64
2022/09/08 14:45:24;;;;;;;57.07;2.30;;;;;;;;;;5071971;28;20446;-64
2022/09/08 14:48:06;;;;;;;57.43;1.93;;;;;;;;;;5071716;28;20466;-64
2022/09/08 14:50:40;;;;;;;57.13;2.00;;;;;;;;;;5068961;28;20763;-65
2022/09/08 14:53:20;;;;;;;57.90;2.00;;;;;;;;;;5071702;28;20467;-64
2022/09/08 14:55:56;;;;;;;57.43;2.17;;;;;;;;;;5071879;28;20457;-64
2022/09/08 14:58:33;;;;;;;57.90;2.13;;;;;;;;;;5071544;28;20443;-64
2022/09/08 15:01:02;;;;;;;57.43;2.00;;;;;;;;;;5068070;28;20977;-64
2022/09/08 15:03:33;;;;;;;57.77;2.20;;;;;;;;;;5070958;28;20480;-64
2022/09/08 15:06:00;;;;;;;58.20;2.10;;;;;;;;;;5071812;28;20808;-64
2022/09/08 15:08:30;;;;;;;58.50;2.20;;;;;;;;;;5067456;28;20464;-64